ASA12 KSAN-KRDU
Flight info
| Callsign | ASA12 |
|---|---|
| Flight time | N/A |
| Altitude | 33000 |
| Route | ZZOOO4 TGOLD PXR J18 ABQ AGGIY KK36A KM39G HUMBO SWAPP KPASS ALDAN4 |
| Aircraft | B739/M-SDE2E3FGHIRWXY/LB1 |
Departure
| Time | 2026-05-06 16:22 |
|---|---|
| Airport | San Diego International Airport (KSAN) |
Arrival
| Time | N/A |
|---|---|
| Airport | Raleigh-Durham International Airport (KRDU) |
| Time | Latitude | Longitude | Altitude | Speed | Heading |
|---|---|---|---|---|---|
| 2026-05-06 16:08 | 32.73303 | -117.20064 | 22 ft | 0 kts | 275° |
| 2026-05-06 16:11 | 32.73302 | -117.20054 | 24 ft | 4 kts | 275° |
| 2026-05-06 16:11 | 32.73300 | -117.20029 | 26 ft | 4 kts | 271° |
| 2026-05-06 16:11 | 32.73305 | -117.20011 | 26 ft | 4 kts | 200° |
| 2026-05-06 16:12 | 32.73325 | -117.20000 | 24 ft | 4 kts | 240° |
| 2026-05-06 16:12 | 32.73328 | -117.19993 | 25 ft | 4 kts | 336° |
| 2026-05-06 16:12 | 32.73304 | -117.19990 | 24 ft | 4 kts | 3° |
| 2026-05-06 16:12 | 32.73296 | -117.19991 | 26 ft | 0 kts | 3° |
| 2026-05-06 16:15 | 32.73300 | -117.19991 | 25 ft | 3 kts | 3° |
| 2026-05-06 16:15 | 32.73332 | -117.19986 | 24 ft | 5 kts | 8° |
| 2026-05-06 16:15 | 32.73373 | -117.19977 | 22 ft | 10 kts | 11° |
| 2026-05-06 16:15 | 32.73449 | -117.19957 | 22 ft | 11 kts | 25° |
| 2026-05-06 16:16 | 32.73474 | -117.19877 | 22 ft | 11 kts | 101° |
| 2026-05-06 16:16 | 32.73455 | -117.19785 | 23 ft | 13 kts | 104° |
| 2026-05-06 16:16 | 32.73432 | -117.19681 | 23 ft | 13 kts | 105° |
| 2026-05-06 16:16 | 32.73408 | -117.19580 | 23 ft | 13 kts | 107° |
| 2026-05-06 16:17 | 32.73382 | -117.19483 | 23 ft | 12 kts | 107° |
| 2026-05-06 16:17 | 32.73354 | -117.19377 | 23 ft | 16 kts | 107° |
| 2026-05-06 16:17 | 32.73315 | -117.19226 | 23 ft | 21 kts | 106° |
| 2026-05-06 16:17 | 32.73275 | -117.19056 | 22 ft | 21 kts | 105° |
| 2026-05-06 16:18 | 32.73236 | -117.18891 | 22 ft | 20 kts | 105° |
| 2026-05-06 16:18 | 32.73197 | -117.18731 | 24 ft | 20 kts | 107° |
| 2026-05-06 16:18 | 32.73158 | -117.18577 | 24 ft | 19 kts | 107° |
| 2026-05-06 16:18 | 32.73121 | -117.18427 | 21 ft | 19 kts | 106° |
| 2026-05-06 16:19 | 32.73086 | -117.18282 | 21 ft | 18 kts | 106° |
| 2026-05-06 16:19 | 32.73052 | -117.18142 | 21 ft | 17 kts | 106° |
| 2026-05-06 16:19 | 32.73020 | -117.18007 | 22 ft | 17 kts | 106° |
| 2026-05-06 16:19 | 32.72988 | -117.17876 | 21 ft | 16 kts | 106° |
| 2026-05-06 16:20 | 32.72954 | -117.17753 | 21 ft | 15 kts | 107° |
| 2026-05-06 16:20 | 32.72964 | -117.17630 | 21 ft | 15 kts | 77° |
| 2026-05-06 16:20 | 32.73014 | -117.17542 | 21 ft | 10 kts | 352° |
| 2026-05-06 16:20 | 32.73030 | -117.17614 | 21 ft | 10 kts | 278° |
| 2026-05-06 16:21 | 32.73036 | -117.17643 | 23 ft | 0 kts | 286° |
| 2026-05-06 16:21 | 32.73040 | -117.17660 | 21 ft | 10 kts | 286° |
| 2026-05-06 16:21 | 32.73128 | -117.18024 | 20 ft | 83 kts | 286° |
| 2026-05-06 16:21 | 32.73349 | -117.18937 | 24 ft | 145 kts | 286° |
| 2026-05-06 16:22 | 32.73671 | -117.20273 | 113 ft | 184 kts | 286° |
| 2026-05-06 16:22 | 32.74024 | -117.21745 | 799 ft | 187 kts | 286° |
| 2026-05-06 16:22 | 32.74380 | -117.23233 | 1691 ft | 187 kts | 285° |
| 2026-05-06 16:22 | 32.74760 | -117.24790 | 2236 ft | 211 kts | 285° |
| 2026-05-06 16:23 | 32.75193 | -117.26579 | 2716 ft | 235 kts | 287° |
| 2026-05-06 16:23 | 32.75664 | -117.28512 | 3271 ft | 251 kts | 288° |
| 2026-05-06 16:23 | 32.76155 | -117.30537 | 3937 ft | 258 kts | 287° |
| 2026-05-06 16:23 | 32.76538 | -117.32619 | 4724 ft | 261 kts | 271° |
| 2026-05-06 16:24 | 32.76149 | -117.34738 | 5405 ft | 269 kts | 244° |
| 2026-05-06 16:24 | 32.74966 | -117.36473 | 6053 ft | 276 kts | 217° |
| 2026-05-06 16:24 | 32.73216 | -117.37407 | 6718 ft | 280 kts | 189° |
| 2026-05-06 16:24 | 32.71279 | -117.37296 | 7313 ft | 283 kts | 161° |
| 2026-05-06 16:25 | 32.69600 | -117.36119 | 7917 ft | 283 kts | 134° |
| 2026-05-06 16:25 | 32.68380 | -117.34291 | 8536 ft | 284 kts | 122° |
| 2026-05-06 16:25 | 32.67321 | -117.32300 | 9169 ft | 287 kts | 120° |
| 2026-05-06 16:25 | 32.66256 | -117.30277 | 9793 ft | 291 kts | 120° |
| 2026-05-06 16:26 | 32.65156 | -117.28239 | 10290 ft | 299 kts | 121° |
| 2026-05-06 16:26 | 32.63981 | -117.26094 | 10426 ft | 319 kts | 121° |
| 2026-05-06 16:26 | 32.63038 | -117.23657 | 10542 ft | 335 kts | 99° |
| 2026-05-06 16:26 | 32.62741 | -117.20857 | 10710 ft | 351 kts | 94° |
| 2026-05-06 16:27 | 32.62514 | -117.17919 | 10984 ft | 363 kts | 94° |
| 2026-05-06 16:27 | 32.62264 | -117.14922 | 11471 ft | 368 kts | 94° |
| 2026-05-06 16:27 | 32.62014 | -117.11934 | 12054 ft | 369 kts | 91° |
| 2026-05-06 16:27 | 32.62297 | -117.08926 | 12564 ft | 370 kts | 71° |
| 2026-05-06 16:28 | 32.63212 | -117.06078 | 13133 ft | 371 kts | 66° |
| 2026-05-06 16:28 | 32.64194 | -117.03229 | 13675 ft | 375 kts | 66° |
| 2026-05-06 16:28 | 32.65163 | -117.00352 | 14182 ft | 378 kts | 67° |
| 2026-05-06 16:28 | 32.66124 | -116.97433 | 14709 ft | 380 kts | 68° |
| 2026-05-06 16:29 | 32.66779 | -116.94373 | 15183 ft | 386 kts | 85° |
| 2026-05-06 16:29 | 32.66832 | -116.91181 | 15708 ft | 388 kts | 88° |
| 2026-05-06 16:29 | 32.66858 | -116.87965 | 16209 ft | 391 kts | 88° |
| 2026-05-06 16:29 | 32.66903 | -116.84737 | 16683 ft | 394 kts | 87° |
| 2026-05-06 16:30 | 32.66970 | -116.81468 | 17139 ft | 397 kts | 86° |
| 2026-05-06 16:30 | 32.67019 | -116.79302 | 17460 ft | 398 kts | 86° |
| 2026-05-06 16:30 | 32.67122 | -116.74896 | 18116 ft | 401 kts | 87° |
| 2026-05-06 16:30 | 32.67127 | -116.71567 | 18575 ft | 404 kts | 89° |
| 2026-05-06 16:31 | 32.67066 | -116.68215 | 18963 ft | 407 kts | 89° |
| 2026-05-06 16:31 | 32.66988 | -116.64847 | 19379 ft | 410 kts | 90° |
| 2026-05-06 16:31 | 32.66913 | -116.61453 | 19795 ft | 412 kts | 89° |
| 2026-05-06 16:31 | 32.66846 | -116.58048 | 20204 ft | 414 kts | 89° |
| 2026-05-06 16:32 | 32.66786 | -116.54617 | 20580 ft | 418 kts | 89° |
| 2026-05-06 16:32 | 32.66728 | -116.51167 | 20958 ft | 420 kts | 89° |
| 2026-05-06 16:32 | 32.66669 | -116.47687 | 21364 ft | 422 kts | 89° |
| 2026-05-06 16:32 | 32.66609 | -116.44201 | 21743 ft | 425 kts | 89° |
| 2026-05-06 16:33 | 32.66618 | -116.40689 | 22085 ft | 427 kts | 85° |
| 2026-05-06 16:33 | 32.66873 | -116.37178 | 22466 ft | 428 kts | 82° |
| 2026-05-06 16:33 | 32.67238 | -116.33663 | 22845 ft | 430 kts | 81° |
| 2026-05-06 16:34 | 32.67999 | -116.26563 | 23475 ft | 438 kts | 81° |
| 2026-05-06 16:34 | 32.68351 | -116.22971 | 23808 ft | 440 kts | 82° |
| 2026-05-06 16:34 | 32.68686 | -116.19345 | 24070 ft | 443 kts | 82° |
| 2026-05-06 16:34 | 32.69009 | -116.15743 | 24271 ft | 448 kts | 82° |
| 2026-05-06 16:35 | 32.69341 | -116.11991 | 24464 ft | 453 kts | 83° |
| 2026-05-06 16:35 | 32.69665 | -116.08322 | 24778 ft | 454 kts | 83° |
| 2026-05-06 16:35 | 32.69998 | -116.04567 | 24996 ft | 458 kts | 83° |
| 2026-05-06 16:35 | 32.70334 | -116.00802 | 25291 ft | 460 kts | 83° |
| 2026-05-06 16:36 | 32.70683 | -115.97007 | 25462 ft | 465 kts | 83° |
| 2026-05-06 16:36 | 32.71040 | -115.93178 | 25752 ft | 466 kts | 83° |
| 2026-05-06 16:36 | 32.71395 | -115.89372 | 26034 ft | 468 kts | 84° |
| 2026-05-06 16:36 | 32.71755 | -115.85488 | 26228 ft | 472 kts | 84° |
| 2026-05-06 16:37 | 32.72113 | -115.81590 | 26372 ft | 477 kts | 84° |
| 2026-05-06 16:37 | 32.72472 | -115.77664 | 26594 ft | 480 kts | 84° |
| 2026-05-06 16:37 | 32.72831 | -115.73724 | 26827 ft | 482 kts | 84° |
| 2026-05-06 16:37 | 32.73191 | -115.69751 | 27021 ft | 486 kts | 84° |
| 2026-05-06 16:38 | 32.73552 | -115.65751 | 27174 ft | 490 kts | 85° |
| 2026-05-06 16:38 | 32.73915 | -115.61717 | 27402 ft | 492 kts | 85° |
| 2026-05-06 16:38 | 32.74280 | -115.57661 | 27612 ft | 494 kts | 85° |
| 2026-05-06 16:38 | 32.74643 | -115.53596 | 27847 ft | 497 kts | 85° |
| 2026-05-06 16:39 | 32.74984 | -115.49495 | 28051 ft | 499 kts | 87° |
| 2026-05-06 16:39 | 32.75173 | -115.45385 | 28319 ft | 499 kts | 90° |
| 2026-05-06 16:39 | 32.75262 | -115.41255 | 28621 ft | 499 kts | 91° |
| 2026-05-06 16:39 | 32.75315 | -115.37130 | 28915 ft | 501 kts | 91° |
| 2026-05-06 16:40 | 32.75366 | -115.32984 | 29156 ft | 502 kts | 91° |
| 2026-05-06 16:40 | 32.75429 | -115.28828 | 29411 ft | 504 kts | 91° |
| 2026-05-06 16:40 | 32.75506 | -115.24666 | 29684 ft | 505 kts | 91° |
| 2026-05-06 16:40 | 32.75594 | -115.20489 | 29917 ft | 507 kts | 91° |
| 2026-05-06 16:41 | 32.75688 | -115.16290 | 30131 ft | 509 kts | 91° |
| 2026-05-06 16:41 | 32.75782 | -115.12086 | 30334 ft | 510 kts | 92° |
| 2026-05-06 16:41 | 32.75877 | -115.07861 | 30545 ft | 511 kts | 92° |
| 2026-05-06 16:41 | 32.75969 | -115.03636 | 30735 ft | 513 kts | 92° |
| 2026-05-06 16:42 | 32.76059 | -114.99396 | 30893 ft | 515 kts | 92° |
| 2026-05-06 16:42 | 32.76147 | -114.95135 | 31079 ft | 516 kts | 92° |
| 2026-05-06 16:42 | 32.76233 | -114.90881 | 31303 ft | 516 kts | 92° |
| 2026-05-06 16:42 | 32.76318 | -114.86616 | 31504 ft | 517 kts | 93° |
| 2026-05-06 16:43 | 32.76401 | -114.82331 | 31601 ft | 520 kts | 93° |
| 2026-05-06 16:43 | 32.76483 | -114.78027 | 31759 ft | 522 kts | 93° |
| 2026-05-06 16:43 | 32.76565 | -114.73711 | 31971 ft | 522 kts | 93° |
| 2026-05-06 16:43 | 32.76646 | -114.69393 | 32153 ft | 524 kts | 94° |
| 2026-05-06 16:44 | 32.76726 | -114.65051 | 32245 ft | 527 kts | 94° |
| 2026-05-06 16:44 | 32.76803 | -114.60694 | 32363 ft | 529 kts | 94° |
| 2026-05-06 16:44 | 32.76875 | -114.56329 | 32539 ft | 529 kts | 94° |
| 2026-05-06 16:44 | 32.76938 | -114.51951 | 32714 ft | 530 kts | 94° |
| 2026-05-06 16:45 | 32.76996 | -114.47563 | 32838 ft | 532 kts | 95° |
| 2026-05-06 16:45 | 32.77053 | -114.43177 | 33039 ft | 531 kts | 95° |
| 2026-05-06 16:45 | 32.77109 | -114.38779 | 33041 ft | 533 kts | 95° |
| 2026-05-06 16:46 | 32.77221 | -114.29980 | 33053 ft | 533 kts | 95° |
| 2026-05-06 16:46 | 32.77327 | -114.21174 | 33035 ft | 533 kts | 95° |
| 2026-05-06 16:47 | 32.77428 | -114.12355 | 33031 ft | 534 kts | 96° |
| 2026-05-06 16:47 | 32.77522 | -114.03526 | 33012 ft | 535 kts | 96° |
| 2026-05-06 16:48 | 32.77757 | -113.94669 | 32993 ft | 542 kts | 88° |
| 2026-05-06 16:48 | 32.79076 | -113.85812 | 33007 ft | 547 kts | 83° |
| 2026-05-06 16:49 | 32.80512 | -113.76933 | 33011 ft | 547 kts | 85° |
| 2026-05-06 16:49 | 32.81829 | -113.68027 | 33015 ft | 550 kts | 80° |
| 2026-05-06 16:50 | 32.84366 | -113.59373 | 33036 ft | 557 kts | 71° |
| 2026-05-06 16:50 | 32.86827 | -113.52285 | 33042 ft | 558 kts | 70° |
| 2026-05-06 16:51 | 32.89733 | -113.43716 | 33042 ft | 559 kts | 72° |
| 2026-05-06 16:51 | 32.92527 | -113.35062 | 33048 ft | 560 kts | 72° |
| 2026-05-06 16:52 | 32.95276 | -113.26383 | 33041 ft | 561 kts | 73° |
| 2026-05-06 16:52 | 32.98031 | -113.17683 | 33040 ft | 562 kts | 73° |
| 2026-05-06 16:53 | 33.00794 | -113.08970 | 33039 ft | 562 kts | 73° |
| 2026-05-06 16:53 | 33.03552 | -113.00252 | 33054 ft | 562 kts | 73° |
| 2026-05-06 16:54 | 33.06305 | -112.91523 | 33050 ft | 563 kts | 73° |
| 2026-05-06 16:54 | 33.09054 | -112.82780 | 33065 ft | 563 kts | 73° |
| 2026-05-06 16:55 | 33.11800 | -112.74022 | 33048 ft | 564 kts | 73° |
| 2026-05-06 16:55 | 33.14891 | -112.65398 | 33059 ft | 567 kts | 66° |
| 2026-05-06 16:56 | 33.18507 | -112.57016 | 33055 ft | 569 kts | 64° |
| 2026-05-06 16:56 | 33.22139 | -112.48604 | 33053 ft | 569 kts | 66° |
| 2026-05-06 16:57 | 33.25662 | -112.40140 | 33068 ft | 570 kts | 66° |
| 2026-05-06 16:57 | 33.29148 | -112.31628 | 33095 ft | 571 kts | 67° |
| 2026-05-06 16:58 | 33.31954 | -112.24772 | 33054 ft | 573 kts | 67° |
| 2026-05-06 16:58 | 33.34584 | -112.18349 | 33040 ft | 573 kts | 67° |
| 2026-05-06 16:59 | 33.36650 | -112.13302 | 33041 ft | 573 kts | 67° |
| 2026-05-06 16:59 | 33.38335 | -112.09182 | 33046 ft | 573 kts | 67° |
| 2026-05-06 17:00 | 33.41836 | -112.00600 | 33050 ft | 574 kts | 67° |
| 2026-05-06 17:00 | 33.45260 | -111.91981 | 33057 ft | 573 kts | 69° |
| 2026-05-06 17:01 | 33.48397 | -111.83286 | 33063 ft | 573 kts | 71° |
| 2026-05-06 17:01 | 33.51516 | -111.74494 | 33077 ft | 575 kts | 70° |
| 2026-05-06 17:02 | 33.54687 | -111.65690 | 33070 ft | 576 kts | 70° |
| 2026-05-06 17:02 | 33.57878 | -111.56888 | 33055 ft | 576 kts | 70° |
| 2026-05-06 17:03 | 33.61062 | -111.48079 | 33044 ft | 574 kts | 70° |
| 2026-05-06 17:03 | 33.64223 | -111.39292 | 33020 ft | 572 kts | 70° |
| 2026-05-06 17:04 | 33.67365 | -111.30533 | 32997 ft | 570 kts | 70° |
| 2026-05-06 17:04 | 33.70487 | -111.21824 | 33008 ft | 567 kts | 70° |
| 2026-05-06 17:05 | 33.73604 | -111.13146 | 33018 ft | 564 kts | 70° |
| 2026-05-06 17:05 | 33.76697 | -111.04510 | 33011 ft | 562 kts | 70° |
| 2026-05-06 17:06 | 33.79773 | -110.95888 | 33015 ft | 560 kts | 70° |
| 2026-05-06 17:06 | 33.82836 | -110.87276 | 32995 ft | 559 kts | 70° |
| 2026-05-06 17:07 | 33.85873 | -110.78700 | 33022 ft | 557 kts | 70° |
| 2026-05-06 17:07 | 33.88899 | -110.70116 | 33025 ft | 557 kts | 70° |
| 2026-05-06 17:08 | 33.91907 | -110.61534 | 33020 ft | 556 kts | 70° |
| 2026-05-06 17:08 | 33.94911 | -110.52952 | 33026 ft | 557 kts | 70° |
| 2026-05-06 17:09 | 33.97917 | -110.44345 | 33016 ft | 558 kts | 70° |
| 2026-05-06 17:09 | 34.00903 | -110.35774 | 33024 ft | 559 kts | 70° |
| 2026-05-06 17:10 | 34.03907 | -110.27140 | 33060 ft | 559 kts | 70° |
| 2026-05-06 17:10 | 34.06917 | -110.18484 | 33090 ft | 559 kts | 70° |
| 2026-05-06 17:11 | 34.09917 | -110.09830 | 33107 ft | 559 kts | 70° |
| 2026-05-06 17:11 | 34.12902 | -110.01191 | 33144 ft | 558 kts | 70° |
| 2026-05-06 17:12 | 34.15879 | -109.92551 | 33163 ft | 557 kts | 70° |
| 2026-05-06 17:12 | 34.18843 | -109.83926 | 33143 ft | 555 kts | 70° |
| 2026-05-06 17:13 | 34.21792 | -109.75318 | 33097 ft | 554 kts | 70° |
| 2026-05-06 17:13 | 34.24729 | -109.66724 | 33044 ft | 552 kts | 70° |
| 2026-05-06 17:14 | 34.27650 | -109.58154 | 33052 ft | 551 kts | 70° |
| 2026-05-06 17:14 | 34.30557 | -109.49580 | 33075 ft | 550 kts | 70° |
| 2026-05-06 17:15 | 34.33450 | -109.41022 | 33078 ft | 550 kts | 70° |
| 2026-05-06 17:15 | 34.36338 | -109.32456 | 33092 ft | 549 kts | 70° |
| 2026-05-06 17:16 | 34.39219 | -109.23889 | 33084 ft | 549 kts | 70° |
| 2026-05-06 17:16 | 34.42095 | -109.15318 | 33061 ft | 550 kts | 70° |
| 2026-05-06 17:17 | 34.44701 | -109.06634 | 33032 ft | 548 kts | 74° |
| 2026-05-06 17:17 | 34.47065 | -108.97856 | 32995 ft | 548 kts | 75° |
| 2026-05-06 17:18 | 34.49402 | -108.89131 | 32994 ft | 548 kts | 75° |
| 2026-05-06 17:18 | 34.51810 | -108.80297 | 32990 ft | 548 kts | 74° |
| 2026-05-06 17:19 | 34.54217 | -108.71527 | 32999 ft | 548 kts | 74° |
| 2026-05-06 17:19 | 34.56623 | -108.62738 | 32983 ft | 549 kts | 74° |
| 2026-05-06 17:20 | 34.59001 | -108.54013 | 32994 ft | 548 kts | 74° |
| 2026-05-06 17:20 | 34.61386 | -108.45228 | 33000 ft | 548 kts | 74° |
| 2026-05-06 17:20 | 34.62569 | -108.40848 | 33151 ft | 540 kts | 71° |
| 2026-05-06 17:21 | 34.63735 | -108.36532 | 33035 ft | 523 kts | 71° |
| 2026-05-06 17:21 | 34.64835 | -108.32455 | 32991 ft | 507 kts | 71° |
| 2026-05-06 17:21 | 34.65918 | -108.28438 | 32964 ft | 496 kts | 71° |
| 2026-05-06 17:22 | 34.68067 | -108.20453 | 32994 ft | 500 kts | 72° |
| 2026-05-06 17:22 | 34.70235 | -108.12371 | 32998 ft | 506 kts | 72° |
| 2026-05-06 17:23 | 34.72422 | -108.04191 | 32997 ft | 511 kts | 72° |
| 2026-05-06 17:23 | 34.74622 | -107.95934 | 32982 ft | 516 kts | 72° |
| 2026-05-06 17:24 | 34.76834 | -107.87606 | 32974 ft | 519 kts | 72° |
| 2026-05-06 17:24 | 34.79055 | -107.79221 | 32958 ft | 522 kts | 72° |
| 2026-05-06 17:25 | 34.81276 | -107.70809 | 32952 ft | 522 kts | 72° |
| 2026-05-06 17:25 | 34.83491 | -107.62395 | 32948 ft | 522 kts | 72° |
| 2026-05-06 17:26 | 34.85698 | -107.53986 | 32951 ft | 521 kts | 72° |
| 2026-05-06 17:26 | 34.87892 | -107.45593 | 32948 ft | 520 kts | 72° |
| 2026-05-06 17:27 | 34.90081 | -107.37197 | 32932 ft | 519 kts | 72° |
| 2026-05-06 17:27 | 34.92256 | -107.28828 | 32927 ft | 519 kts | 72° |
| 2026-05-06 17:28 | 34.94432 | -107.20430 | 32929 ft | 519 kts | 72° |
| 2026-05-06 17:28 | 34.96539 | -107.12272 | 32950 ft | 519 kts | 73° |
| 2026-05-06 17:29 | 34.98705 | -107.03858 | 32991 ft | 521 kts | 73° |
| 2026-05-06 17:29 | 35.00853 | -106.95483 | 33039 ft | 522 kts | 73° |
| 2026-05-06 17:30 | 35.03034 | -106.86958 | 33078 ft | 523 kts | 73° |
| 2026-05-06 17:30 | 35.05025 | -106.78474 | 33090 ft | 524 kts | 78° |
| 2026-05-06 17:31 | 35.06485 | -106.69754 | 33094 ft | 525 kts | 81° |
| 2026-05-06 17:31 | 35.07850 | -106.60981 | 33100 ft | 527 kts | 81° |
| 2026-05-06 17:32 | 35.09248 | -106.52186 | 33093 ft | 529 kts | 80° |
| 2026-05-06 17:32 | 35.10683 | -106.43352 | 33072 ft | 532 kts | 80° |
| 2026-05-06 17:33 | 35.12128 | -106.34483 | 33032 ft | 533 kts | 80° |
| 2026-05-06 17:33 | 35.13572 | -106.25577 | 32995 ft | 535 kts | 81° |
| 2026-05-06 17:34 | 35.15010 | -106.16644 | 32958 ft | 536 kts | 81° |
| 2026-05-06 17:34 | 35.16442 | -106.07693 | 32956 ft | 538 kts | 81° |
| 2026-05-06 17:35 | 35.17873 | -105.98704 | 32951 ft | 539 kts | 81° |
| 2026-05-06 17:35 | 35.19300 | -105.89700 | 32952 ft | 541 kts | 81° |
| 2026-05-06 17:36 | 35.21436 | -105.76133 | 32939 ft | 543 kts | 81° |
| 2026-05-06 17:36 | 35.22626 | -105.68529 | 32943 ft | 544 kts | 81° |
| 2026-05-06 17:37 | 35.24045 | -105.59425 | 32939 ft | 545 kts | 82° |
| 2026-05-06 17:37 | 35.25460 | -105.50299 | 32914 ft | 547 kts | 82° |
| 2026-05-06 17:38 | 35.26870 | -105.41148 | 32906 ft | 547 kts | 82° |
| 2026-05-06 17:38 | 35.28265 | -105.32050 | 32900 ft | 548 kts | 82° |
| 2026-05-06 17:39 | 35.29668 | -105.22861 | 32875 ft | 549 kts | 82° |
| 2026-05-06 17:39 | 35.31073 | -105.13599 | 32889 ft | 550 kts | 82° |
| 2026-05-06 17:40 | 35.32456 | -105.04437 | 32875 ft | 551 kts | 82° |
| 2026-05-06 17:40 | 35.33844 | -104.95195 | 32863 ft | 552 kts | 82° |
| 2026-05-06 17:41 | 35.35226 | -104.85938 | 32849 ft | 553 kts | 83° |
| 2026-05-06 17:41 | 35.36605 | -104.76657 | 32844 ft | 554 kts | 83° |
| 2026-05-06 17:42 | 35.37976 | -104.67370 | 32864 ft | 554 kts | 83° |
| 2026-05-06 17:42 | 35.39344 | -104.58057 | 32852 ft | 556 kts | 83° |
| 2026-05-06 17:43 | 35.40707 | -104.48724 | 32865 ft | 557 kts | 83° |
| 2026-05-06 17:43 | 35.42066 | -104.39370 | 32872 ft | 558 kts | 83° |
| 2026-05-06 17:44 | 35.43419 | -104.30000 | 32882 ft | 559 kts | 84° |
| 2026-05-06 17:44 | 35.44769 | -104.20599 | 32868 ft | 560 kts | 84° |
| 2026-05-06 17:45 | 35.46115 | -104.11172 | 32890 ft | 561 kts | 84° |
| 2026-05-06 17:45 | 35.47455 | -104.01732 | 32897 ft | 563 kts | 84° |
| 2026-05-06 17:46 | 35.48792 | -103.92258 | 32914 ft | 564 kts | 84° |
| 2026-05-06 17:46 | 35.50124 | -103.82763 | 32927 ft | 565 kts | 84° |
| 2026-05-06 17:47 | 35.51450 | -103.73254 | 32945 ft | 566 kts | 84° |
| 2026-05-06 17:47 | 35.52763 | -103.63790 | 32960 ft | 566 kts | 84° |
| 2026-05-06 17:48 | 35.54084 | -103.54204 | 32979 ft | 566 kts | 85° |
| 2026-05-06 17:48 | 35.55381 | -103.44732 | 32975 ft | 567 kts | 85° |
| 2026-05-06 17:49 | 35.56682 | -103.35180 | 32986 ft | 567 kts | 85° |
| 2026-05-06 17:49 | 35.57974 | -103.25628 | 33002 ft | 567 kts | 85° |
| 2026-05-06 17:50 | 35.59260 | -103.16064 | 33009 ft | 568 kts | 85° |
| 2026-05-06 17:50 | 35.60540 | -103.06490 | 33017 ft | 568 kts | 85° |
| 2026-05-06 17:51 | 35.61812 | -102.96907 | 33030 ft | 568 kts | 86° |
| 2026-05-06 17:51 | 35.63077 | -102.87328 | 33030 ft | 569 kts | 86° |
| 2026-05-06 17:52 | 35.64338 | -102.77710 | 33046 ft | 569 kts | 86° |
| 2026-05-06 17:52 | 35.65591 | -102.68096 | 33066 ft | 570 kts | 86° |
| 2026-05-06 17:53 | 35.66836 | -102.58474 | 33067 ft | 570 kts | 86° |
| 2026-05-06 17:53 | 35.68077 | -102.48830 | 33071 ft | 571 kts | 86° |
| 2026-05-06 17:54 | 35.69308 | -102.39198 | 33075 ft | 571 kts | 86° |
| 2026-05-06 17:54 | 35.70534 | -102.29539 | 33098 ft | 571 kts | 86° |
| 2026-05-06 17:55 | 35.71753 | -102.19875 | 33114 ft | 571 kts | 86° |
| 2026-05-06 17:55 | 35.72964 | -102.10212 | 33131 ft | 571 kts | 86° |
| 2026-05-06 17:56 | 35.74167 | -102.00548 | 33139 ft | 571 kts | 87° |
| 2026-05-06 17:56 | 35.75361 | -101.90888 | 33139 ft | 571 kts | 87° |
| 2026-05-06 17:57 | 35.76539 | -101.81295 | 33122 ft | 570 kts | 87° |
| 2026-05-06 17:57 | 35.77716 | -101.71640 | 33121 ft | 570 kts | 87° |
| 2026-05-06 17:58 | 35.78886 | -101.61979 | 33136 ft | 571 kts | 87° |
| 2026-05-06 17:58 | 35.80050 | -101.52306 | 33155 ft | 571 kts | 87° |
| 2026-05-06 17:59 | 35.81240 | -101.42642 | 33161 ft | 571 kts | 86° |
| 2026-05-06 17:59 | 35.82570 | -101.32985 | 33152 ft | 572 kts | 85° |
| 2026-05-06 18:00 | 35.83923 | -101.23327 | 33159 ft | 572 kts | 85° |
| 2026-05-06 18:00 | 35.85246 | -101.13661 | 33134 ft | 572 kts | 86° |
| 2026-05-06 18:01 | 35.86544 | -101.03993 | 33142 ft | 572 kts | 86° |
| 2026-05-06 18:01 | 35.87833 | -100.94316 | 33148 ft | 572 kts | 86° |
| 2026-05-06 18:02 | 35.89116 | -100.84638 | 33136 ft | 573 kts | 86° |
| 2026-05-06 18:02 | 35.90395 | -100.74935 | 33135 ft | 573 kts | 86° |